Time;durP1;ratioP1;P1;durP2;ratioP2;P2;SDS_P1;SDS_P2;PMS_P1;PMS_P2;Temp;Humidity;BMP_temperature;BMP_pressure;BME280_temperature;BME280_humidity;BME280_pressure;Samples;Min_cycle;Max_cycle;Signal;HPM_P1;HPM_P2
2021/11/28 00:00:06;;;;;;;13.80;6.53;;;4.60;92.80;;;;;;5050572;28;20017;-71
2021/11/28 00:02:34;;;;;;;12.88;5.65;;;4.40;92.90;;;;;;5050449;28;20066;-72
2021/11/28 00:05:01;;;;;;;13.85;5.63;;;4.40;93.10;;;;;;5050939;28;20040;-72
2021/11/28 00:15:05;;;;;;;13.77;4.78;;;4.40;92.90;;;;;;5050973;28;20282;-71
2021/11/28 00:17:30;;;;;;;13.43;5.07;;;4.50;92.80;;;;;;5051027;28;20040;-72
2021/11/28 00:19:56;;;;;;;15.88;5.25;;;4.50;92.90;;;;;;5050916;28;20126;-73
2021/11/28 00:22:22;;;;;;;14.05;5.68;;;4.50;92.70;;;;;;5050672;28;20029;-72
2021/11/28 00:24:50;;;;;;;9.82;4.65;;;4.50;92.70;;;;;;5051006;28;20040;-72
2021/11/28 00:27:16;;;;;;;9.57;4.80;;;4.40;92.50;;;;;;5050489;28;20036;-73
2021/11/28 00:29:42;;;;;;;15.77;5.20;;;4.40;92.60;;;;;;5051226;28;20078;-71
2021/11/28 00:32:07;;;;;;;12.98;5.70;;;4.40;92.70;;;;;;5050566;28;20067;-72
2021/11/28 00:34:33;;;;;;;18.95;5.55;;;4.40;92.60;;;;;;5050543;28;20374;-73
2021/11/28 00:36:59;;;;;;;11.98;5.20;;;4.40;92.70;;;;;;5052324;28;20037;-73
2021/11/28 00:39:24;;;;;;;15.43;4.97;;;4.40;92.70;;;;;;5057250;28;20529;-73
2021/11/28 00:41:50;;;;;;;14.60;5.68;;;4.40;92.70;;;;;;5057540;28;20021;-73
2021/11/28 00:44:16;;;;;;;10.35;4.85;;;4.30;92.70;;;;;;5057373;28;20029;-72
2021/11/28 00:46:41;;;;;;;20.15;5.93;;;4.30;93.00;;;;;;5057111;28;20116;-73
2021/11/28 00:49:14;;;;;;;11.32;4.60;;;4.30;92.70;;;;;;5057138;28;20463;-73
2021/11/28 00:51:52;;;;;;;15.02;4.93;;;4.30;92.70;;;;;;5056646;28;20737;-72
2021/11/28 00:54:18;;;;;;;14.73;5.57;;;4.30;92.70;;;;;;5056961;28;20029;-73
2021/11/28 00:56:44;;;;;;;15.60;5.40;;;4.30;92.70;;;;;;5056419;28;20409;-73
2021/11/28 00:59:10;;;;;;;13.73;5.07;;;4.30;92.90;;;;;;5056947;28;20060;-73
2021/11/28 01:01:36;;;;;;;10.20;4.75;;;4.20;93.20;;;;;;5057007;28;20032;-72
2021/11/28 01:04:03;;;;;;;16.83;5.18;;;4.20;93.10;;;;;;5057141;28;20124;-73
2021/11/28 01:06:29;;;;;;;9.77;4.65;;;4.30;93.10;;;;;;5056685;28;20033;-72
2021/11/28 01:08:55;;;;;;;13.38;5.38;;;4.30;92.90;;;;;;5056928;28;20082;-73
2021/11/28 01:11:23;;;;;;;10.88;4.75;;;4.20;92.90;;;;;;5057169;28;20439;-72
2021/11/28 01:13:49;;;;;;;;;;;4.30;92.80;;;;;;5057389;28;20044;-72
2021/11/28 01:16:14;;;;;;;12.98;4.68;;;4.30;92.80;;;;;;5056759;28;19912;-72
2021/11/28 01:18:40;;;;;;;11.10;4.65;;;4.30;92.70;;;;;;5055584;28;20075;-72
2021/11/28 01:21:06;;;;;;;10.52;4.40;;;4.30;92.80;;;;;;5056874;28;20060;-72
2021/11/28 01:23:33;;;;;;;22.15;5.30;;;4.30;92.80;;;;;;5057242;28;20081;-71
2021/11/28 01:25:59;;;;;;;12.57;4.60;;;4.30;92.80;;;;;;5056890;28;20078;-72
2021/11/28 01:28:24;;;;;;;9.20;4.15;;;4.30;92.70;;;;;;5055612;28;20033;-72
2021/11/28 01:30:50;;;;;;;10.07;3.95;;;4.40;92.70;;;;;;5056523;28;20033;-72
2021/11/28 01:33:15;;;;;;;10.90;4.28;;;4.40;92.70;;;;;;5056753;28;20110;-71
2021/11/28 01:35:41;;;;;;;16.58;4.25;;;4.50;92.70;;;;;;5056970;28;20029;-72
2021/11/28 01:38:07;;;;;;;14.45;4.70;;;4.60;92.70;;;;;;5056625;28;20419;-71
2021/11/28 01:40:33;;;;;;;10.20;3.92;;;4.60;92.60;;;;;;5056578;28;20473;-71
2021/11/28 01:43:08;;;;;;;11.75;4.63;;;4.50;92.50;;;;;;5056673;28;20036;-72
2021/11/28 01:45:35;;;;;;;11.77;4.20;;;4.60;92.60;;;;;;5056616;28;20484;-72
2021/11/28 01:48:04;;;;;;;14.32;4.43;;;4.60;92.60;;;;;;5056364;28;20021;-71
2021/11/28 01:50:32;;;;;;;8.20;3.60;;;4.70;92.50;;;;;;5053262;28;20028;-71
2021/11/28 01:52:58;;;;;;;;;;;4.80;92.40;;;;;;5053902;28;20029;-71
2021/11/28 01:55:27;;;;;;;12.13;3.95;;;4.80;92.40;;;;;;5052257;28;19912;-71
2021/11/28 01:57:54;;;;;;;12.48;4.07;;;4.80;92.30;;;;;;5052241;28;20056;-70
2021/11/28 02:00:24;;;;;;;9.40;4.03;;;4.80;92.30;;;;;;5053055;28;20088;-72
2021/11/28 02:02:51;;;;;;;9.23;3.83;;;4.80;92.20;;;;;;5053778;28;20112;-71
2021/11/28 02:05:19;;;;;;;10.13;4.38;;;4.90;92.20;;;;;;5053368;28;20037;-72
2021/11/28 02:07:45;;;;;;;9.90;4.70;;;4.80;92.10;;;;;;5053355;28;20029;-72
2021/11/28 02:10:13;;;;;;;13.98;4.22;;;4.80;92.10;;;;;;5052153;28;20084;-72
2021/11/28 02:12:38;;;;;;;7.77;3.73;;;4.70;92.10;;;;;;5052863;28;20052;-72
2021/11/28 02:15:05;;;;;;;13.30;4.00;;;4.80;92.30;;;;;;5051807;28;20052;-72
2021/11/28 02:17:31;;;;;;;9.27;4.37;;;4.70;92.20;;;;;;5052521;28;20056;-72
2021/11/28 02:19:57;;;;;;;12.68;5.30;;;4.60;92.30;;;;;;5052982;28;20139;-72
2021/11/28 02:22:23;;;;;;;15.68;5.07;;;4.60;92.40;;;;;;5052932;28;20524;-72
2021/11/28 02:24:49;;;;;;;11.60;4.60;;;4.60;92.50;;;;;;5052758;28;20056;-72
2021/11/28 02:27:15;;;;;;;16.88;4.90;;;4.60;92.50;;;;;;5052704;28;20182;-72
2021/11/28 02:29:42;;;;;;;13.50;4.45;;;4.60;92.50;;;;;;5052985;28;20021;-72
2021/11/28 02:32:09;;;;;;;13.13;5.33;;;4.50;92.40;;;;;;5051578;28;20053;-72
2021/11/28 02:34:36;;;;;;;7.78;3.35;;;4.40;92.50;;;;;;5052579;28;20486;-72
2021/11/28 02:37:03;;;;;;;15.30;3.90;;;4.40;92.60;;;;;;5070900;28;20908;-72
2021/11/28 02:39:29;;;;;;;10.70;4.07;;;4.30;92.70;;;;;;5072589;28;20042;-72
2021/11/28 02:41:55;;;;;;;16.58;4.03;;;4.20;92.70;;;;;;5071561;28;20123;-72
2021/11/28 02:44:20;;;;;;;8.07;3.08;;;4.20;92.80;;;;;;5072826;28;20024;-72
2021/11/28 02:46:46;;;;;;;13.80;4.13;;;4.10;92.90;;;;;;5071170;28;20116;-72
2021/11/28 02:49:12;;;;;;;10.35;3.28;;;3.90;93.00;;;;;;5071449;28;20032;-72
2021/11/28 02:51:39;;;;;;;9.77;3.75;;;4.00;93.10;;;;;;5072288;28;20470;-72
2021/11/28 02:54:06;;;;;;;7.63;3.13;;;4.00;93.20;;;;;;5072363;28;20334;-72
2021/11/28 02:56:33;;;;;;;7.82;2.88;;;4.00;93.20;;;;;;5072611;28;20025;-72
2021/11/28 02:59:00;;;;;;;13.25;3.67;;;4.00;93.20;;;;;;5072335;28;20103;-72
2021/11/28 03:01:26;;;;;;;9.30;3.53;;;4.00;93.00;;;;;;5070836;28;20033;-72
2021/11/28 03:03:53;;;;;;;7.90;3.72;;;3.90;92.90;;;;;;5072025;28;20033;-72
2021/11/28 03:06:19;;;;;;;6.60;3.45;;;3.90;93.30;;;;;;5072198;28;20070;-73
2021/11/28 03:08:45;;;;;;;10.27;3.40;;;3.90;93.00;;;;;;5072128;28;20024;-71
2021/11/28 03:11:13;;;;;;;8.13;4.00;;;4.00;93.10;;;;;;5070761;28;20073;-73
2021/11/28 03:13:44;;;;;;;11.95;4.20;;;4.00;93.10;;;;;;5071843;28;20021;-73
2021/11/28 03:16:13;;;;;;;10.98;3.95;;;4.00;93.00;;;;;;5071809;28;20071;-72
2021/11/28 03:18:39;;;;;;;11.30;3.80;;;4.00;93.00;;;;;;5071789;28;20032;-72
2021/11/28 03:21:11;;;;;;;10.65;3.67;;;4.00;93.10;;;;;;5071754;28;20028;-72
2021/11/28 03:23:40;;;;;;;6.15;3.20;;;4.00;93.10;;;;;;5072005;28;20028;-71
2021/11/28 03:26:18;;;;;;;7.60;3.55;;;4.00;93.10;;;;;;5071677;28;20471;-72
2021/11/28 03:28:50;;;;;;;10.70;3.75;;;4.00;93.20;;;;;;5071617;28;20032;-72
2021/11/28 03:31:16;;;;;;;11.95;3.50;;;3.90;93.10;;;;;;5071585;28;20056;-72
2021/11/28 03:33:42;;;;;;;13.02;4.18;;;3.90;93.20;;;;;;5071784;28;20124;-72
2021/11/28 03:36:10;;;;;;;8.77;3.90;;;3.80;93.30;;;;;;5071399;28;20091;-72
2021/11/28 03:38:37;;;;;;;14.77;4.38;;;3.90;93.40;;;;;;5071670;28;20465;-72
2021/11/28 03:41:04;;;;;;;5.72;3.28;;;3.90;93.40;;;;;;5071342;28;20024;-72
2021/11/28 03:43:29;;;;;;;7.15;3.22;;;4.00;93.50;;;;;;5071265;28;20378;-73
2021/11/28 03:45:55;;;;;;;11.05;3.90;;;4.00;93.40;;;;;;5071111;28;20028;-73
2021/11/28 03:48:21;;;;;;;10.55;4.65;;;4.10;93.40;;;;;;5071022;28;20078;-72
2021/11/28 03:50:47;;;;;;;15.63;4.28;;;4.10;93.30;;;;;;5071398;28;20032;-71
2021/11/28 03:53:12;;;;;;;13.55;3.85;;;4.00;93.40;;;;;;5071086;28;20032;-72
2021/11/28 03:55:39;;;;;;;8.23;3.65;;;4.00;93.30;;;;;;5070834;28;20501;-72
2021/11/28 03:58:07;;;;;;;17.58;4.57;;;4.00;93.30;;;;;;5071011;28;20039;-71
2021/11/28 04:00:32;;;;;;;;;;;4.00;93.30;;;;;;5071152;28;20032;-71
2021/11/28 04:02:58;;;;;;;7.45;3.53;;;3.90;93.40;;;;;;5070809;28;19904;-71
2021/11/28 04:05:24;;;;;;;10.25;4.07;;;3.90;93.50;;;;;;5071719;28;20020;-72
2021/11/28 04:07:51;;;;;;;17.75;4.47;;;4.00;93.50;;;;;;5070693;28;20040;-72
2021/11/28 04:10:16;;;;;;;13.48;4.10;;;4.00;93.50;;;;;;5071157;28;20033;-72
2021/11/28 04:12:42;;;;;;;8.48;3.80;;;4.00;93.60;;;;;;5070302;28;20039;-71
2021/11/28 04:15:08;;;;;;;11.50;4.18;;;4.10;93.60;;;;;;5069634;28;20032;-72
2021/11/28 04:17:34;;;;;;;9.35;3.65;;;4.10;93.60;;;;;;5071177;28;20066;-71
2021/11/28 04:20:00;;;;;;;12.32;3.63;;;4.10;93.60;;;;;;5070655;28;20032;-71
2021/11/28 04:22:25;;;;;;;5.57;3.55;;;4.10;93.70;;;;;;5070738;28;20033;-71
2021/11/28 04:24:52;;;;;;;13.77;4.13;;;4.10;93.70;;;;;;5070678;28;20052;-71
2021/11/28 04:27:19;;;;;;;12.77;4.00;;;4.00;93.60;;;;;;5069604;28;20024;-71
2021/11/28 04:29:45;;;;;;;11.60;4.25;;;4.10;93.80;;;;;;5070959;28;20027;-71
2021/11/28 04:32:10;;;;;;;13.55;3.90;;;4.10;93.70;;;;;;5070518;28;20400;-72
2021/11/28 04:34:36;;;;;;;11.05;4.10;;;4.10;93.70;;;;;;5070534;28;20059;-70
2021/11/28 04:37:03;;;;;;;10.65;4.07;;;4.10;93.80;;;;;;5070541;28;20123;-71
2021/11/28 04:39:29;;;;;;;12.70;4.43;;;4.10;93.70;;;;;;5070716;28;20173;-72
2021/11/28 04:41:54;;;;;;;9.32;4.07;;;4.20;93.80;;;;;;5070279;28;20024;-72
2021/11/28 04:44:23;;;;;;;11.65;4.10;;;4.20;93.80;;;;;;5070969;28;20025;-71
2021/11/28 04:46:49;;;;;;;;;;;4.20;93.70;;;;;;5070932;28;20040;-72
2021/11/28 04:49:15;;;;;;;6.75;3.72;;;4.10;93.70;;;;;;5070573;28;20274;-72
2021/11/28 04:51:41;;;;;;;10.93;3.92;;;4.20;93.70;;;;;;5070256;28;20043;-72
2021/11/28 04:54:08;;;;;;;16.73;4.10;;;4.20;93.70;;;;;;5070132;28;20020;-72
2021/11/28 04:56:34;;;;;;;12.15;4.50;;;4.30;93.70;;;;;;5071024;28;20021;-72
2021/11/28 04:58:59;;;;;;;7.45;3.75;;;4.20;93.80;;;;;;5070230;28;20367;-71
2021/11/28 05:01:26;;;;;;;10.25;3.83;;;4.30;93.90;;;;;;5070248;28;20032;-71
2021/11/28 05:03:51;;;;;;;16.65;4.28;;;4.30;93.80;;;;;;5070215;28;20111;-73
2021/11/28 05:06:17;;;;;;;13.55;4.20;;;4.30;93.90;;;;;;5070440;28;20183;-71
2021/11/28 05:08:44;;;;;;;15.70;4.50;;;4.40;93.90;;;;;;5070640;28;20028;-72
2021/11/28 05:11:09;;;;;;;12.20;4.40;;;4.40;93.80;;;;;;5070352;28;20040;-73
2021/11/28 05:13:35;;;;;;;7.40;3.40;;;4.70;93.90;;;;;;5070593;28;20021;-71
2021/11/28 05:16:01;;;;;;;11.20;4.03;;;4.50;93.70;;;;;;5070073;28;20047;-71
2021/11/28 05:18:26;;;;;;;9.80;3.70;;;4.50;93.80;;;;;;5069022;28;20430;-73
2021/11/28 05:20:52;;;;;;;9.57;3.85;;;4.50;93.80;;;;;;5070475;28;20025;-72
2021/11/28 05:23:18;;;;;;;8.32;4.00;;;4.70;93.90;;;;;;5070839;28;20040;-72
2021/11/28 05:25:44;;;;;;;9.43;4.07;;;4.60;93.70;;;;;;5073486;28;20060;-72
2021/11/28 05:28:10;;;;;;;10.90;4.15;;;4.60;93.90;;;;;;5073717;28;20115;-72
2021/11/28 05:30:37;;;;;;;9.00;3.72;;;4.60;93.90;;;;;;5073610;28;20049;-72
2021/11/28 05:33:03;;;;;;;9.50;3.67;;;4.60;93.90;;;;;;5073662;28;20043;-72
2021/11/28 05:35:28;;;;;;;8.70;4.00;;;4.60;94.00;;;;;;5074413;28;20028;-72
2021/11/28 05:37:55;;;;;;;9.43;4.13;;;4.60;93.90;;;;;;5073610;28;20031;-72
2021/11/28 05:40:21;;;;;;;8.75;3.75;;;4.50;93.80;;;;;;5073946;28;20021;-72
2021/11/28 05:42:50;;;;;;;7.03;3.20;;;4.60;93.90;;;;;;5073377;28;20332;-72
2021/11/28 05:45:17;;;;;;;10.02;3.85;;;4.60;93.90;;;;;;5073566;28;20032;-72
2021/11/28 05:47:43;;;;;;;11.88;4.32;;;4.70;93.80;;;;;;5072832;28;20490;-73
2021/11/28 05:50:09;;;;;;;10.15;3.65;;;4.70;93.80;;;;;;5073264;28;20029;-72
2021/11/28 05:52:36;;;;;;;8.43;3.83;;;4.80;93.70;;;;;;5073268;28;20115;-71
2021/11/28 05:55:03;;;;;;;9.05;3.67;;;4.80;93.70;;;;;;5073137;28;20044;-72
2021/11/28 05:57:28;;;;;;;12.18;3.50;;;4.80;93.70;;;;;;5073346;28;20017;-72
2021/11/28 05:59:54;;;;;;;8.93;3.35;;;4.70;93.60;;;;;;5072984;28;20155;-72
2021/11/28 06:02:20;;;;;;;9.45;3.38;;;4.80;93.60;;;;;;5073560;28;20040;-72
2021/11/28 06:04:46;;;;;;;8.10;3.28;;;4.90;93.60;;;;;;5073074;28;20121;-73
2021/11/28 06:07:12;;;;;;;10.32;4.05;;;4.90;93.60;;;;;;5073135;28;20032;-71
2021/11/28 06:09:37;;;;;;;13.40;4.25;;;4.90;93.50;;;;;;5073213;28;20361;-71
2021/11/28 06:12:03;;;;;;;12.15;3.28;;;4.90;93.60;;;;;;5073058;28;20513;-73
2021/11/28 06:14:29;;;;;;;10.30;3.28;;;4.90;93.50;;;;;;5073549;28;20040;-72
2021/11/28 06:16:55;;;;;;;7.25;2.95;;;4.90;93.50;;;;;;5072947;28;20032;-71
2021/11/28 06:19:21;;;;;;;7.82;3.15;;;5.00;93.50;;;;;;5072933;28;20126;-72
2021/11/28 06:21:47;;;;;;;10.70;3.70;;;5.00;93.30;;;;;;5072986;28;20095;-71
2021/11/28 06:24:13;;;;;;;11.80;3.83;;;5.10;93.30;;;;;;5073166;28;20439;-72
2021/11/28 06:26:39;;;;;;;11.70;3.40;;;5.00;93.20;;;;;;5073317;28;20081;-72
2021/11/28 06:29:05;;;;;;;10.77;3.03;;;5.10;93.20;;;;;;5072748;28;20021;-73
2021/11/28 06:31:31;;;;;;;13.00;3.38;;;5.10;93.10;;;;;;5072476;28;20056;-72
2021/11/28 06:33:56;;;;;;;7.57;2.97;;;5.10;93.00;;;;;;5072601;28;20028;-72
2021/11/28 06:36:22;;;;;;;4.57;2.75;;;5.10;93.00;;;;;;5071023;28;20028;-72
2021/11/28 06:38:48;;;;;;;11.50;3.97;;;5.00;93.00;;;;;;5071693;28;20032;-73
2021/11/28 06:41:14;;;;;;;11.60;3.65;;;5.10;93.00;;;;;;5072331;28;20521;-72
2021/11/28 06:43:40;;;;;;;6.93;3.22;;;5.00;92.80;;;;;;5072629;28;20097;-72
2021/11/28 06:46:06;;;;;;;13.98;3.40;;;4.90;92.70;;;;;;5072294;28;20032;-72
2021/11/28 06:48:31;;;;;;;8.15;3.10;;;5.00;92.90;;;;;;5072501;28;20047;-72
2021/11/28 06:50:57;;;;;;;8.65;3.28;;;5.00;92.80;;;;;;5072262;28;20028;-72
2021/11/28 06:53:23;;;;;;;11.38;3.22;;;4.90;92.80;;;;;;5071641;28;20036;-71
2021/11/28 06:55:49;;;;;;;11.27;3.20;;;5.00;92.90;;;;;;5072133;28;20037;-72
2021/11/28 06:58:15;;;;;;;9.18;3.13;;;5.00;92.90;;;;;;5072077;28;20025;-72
2021/11/28 07:00:41;;;;;;;10.65;3.90;;;5.00;93.10;;;;;;5072258;28;20035;-72
2021/11/28 07:03:07;;;;;;;8.63;3.72;;;5.00;92.90;;;;;;5070718;28;20039;-72
2021/11/28 07:05:33;;;;;;;13.88;3.90;;;5.00;92.60;;;;;;5072568;28;20029;-73
2021/11/28 07:07:58;;;;;;;11.50;4.00;;;5.00;92.80;;;;;;5071977;28;20485;-72
2021/11/28 07:10:24;;;;;;;7.35;3.65;;;5.00;92.70;;;;;;5071713;28;20060;-73
2021/11/28 07:12:50;;;;;;;7.53;3.58;;;5.10;92.80;;;;;;5072032;28;20405;-73
2021/11/28 07:15:15;;;;;;;11.20;4.05;;;5.10;92.80;;;;;;5071625;28;20056;-72
2021/11/28 07:17:41;;;;;;;14.23;4.57;;;5.10;92.70;;;;;;5051714;28;20048;-72
2021/11/28 07:20:08;;;;;;;12.30;3.35;;;5.20;92.70;;;;;;5051908;28;20044;-73
2021/11/28 07:22:34;;;;;;;11.40;3.70;;;5.20;92.70;;;;;;5052006;28;20033;-72
2021/11/28 07:25:00;;;;;;;11.10;3.60;;;5.30;92.80;;;;;;5052247;28;20382;-73
2021/11/28 07:27:26;;;;;;;9.35;4.10;;;5.40;92.70;;;;;;5051771;28;20089;-73
2021/11/28 07:29:52;;;;;;;10.77;4.47;;;5.20;92.70;;;;;;5052389;28;20421;-71
2021/11/28 07:32:18;;;;;;;14.15;4.07;;;5.20;92.90;;;;;;5051132;28;20061;-72
2021/11/28 07:34:43;;;;;;;8.45;3.65;;;5.30;92.80;;;;;;5051501;28;20102;-72
2021/11/28 07:37:09;;;;;;;8.48;4.00;;;5.30;92.80;;;;;;5051598;28;20234;-72
2021/11/28 07:39:36;;;;;;;12.73;3.85;;;5.40;92.70;;;;;;5051641;28;20064;-71
2021/11/28 07:42:02;;;;;;;10.85;3.97;;;5.40;92.60;;;;;;5051383;28;20021;-72
2021/11/28 07:44:28;;;;;;;14.93;3.85;;;5.40;92.60;;;;;;5051848;28;20028;-72
2021/11/28 07:46:53;;;;;;;11.27;4.63;;;5.40;92.50;;;;;;5050620;28;20025;-72
2021/11/28 07:49:19;;;;;;;11.65;4.18;;;5.50;92.60;;;;;;5051555;28;20068;-72
2021/11/28 07:51:45;;;;;;;7.97;3.92;;;5.50;92.70;;;;;;5051536;28;20478;-73
2021/11/28 07:54:11;;;;;;;10.65;3.72;;;5.50;92.60;;;;;;5050469;28;20347;-73
2021/11/28 07:56:38;;;;;;;7.35;3.45;;;5.50;92.60;;;;;;5050878;28;20091;-72
2021/11/28 07:59:04;;;;;;;13.43;4.28;;;5.50;92.50;;;;;;5051111;28;20056;-72
2021/11/28 08:01:29;;;;;;;12.65;6.05;;;5.50;92.60;;;;;;5051066;28;20466;-72
2021/11/28 08:03:55;;;;;;;12.90;3.72;;;5.60;92.70;;;;;;5050275;28;20025;-72
2021/11/28 08:06:21;;;;;;;19.75;6.78;;;5.60;92.70;;;;;;5051073;28;20032;-73
2021/11/28 08:08:46;;;;;;;13.45;5.63;;;5.60;92.80;;;;;;5051560;28;20021;-71
2021/11/28 08:11:13;;;;;;;17.50;4.95;;;5.50;92.70;;;;;;5051062;28;20112;-72
2021/11/28 08:13:38;;;;;;;12.05;4.47;;;5.60;92.70;;;;;;5051215;28;20035;-71
2021/11/28 08:16:04;;;;;;;8.15;4.10;;;5.60;92.70;;;;;;5050769;28;20374;-73
2021/11/28 08:18:30;;;;;;;10.20;3.95;;;5.60;92.70;;;;;;5051030;28;20099;-73
2021/11/28 08:20:57;;;;;;;14.77;4.60;;;5.50;92.50;;;;;;5050358;28;20044;-73
2021/11/28 08:23:23;;;;;;;10.88;4.72;;;5.50;92.60;;;;;;5051341;28;20116;-73
2021/11/28 08:25:48;;;;;;;7.53;4.05;;;5.60;92.70;;;;;;5051287;28;20482;-73
2021/11/28 08:28:14;;;;;;;11.48;4.63;;;5.60;92.40;;;;;;5051098;28;20033;-72
2021/11/28 08:30:41;;;;;;;14.82;4.45;;;5.60;92.50;;;;;;5050402;28;20033;-72
2021/11/28 08:33:07;;;;;;;10.80;4.35;;;5.60;92.70;;;;;;5051124;28;20021;-72
2021/11/28 08:35:33;;;;;;;11.85;4.80;;;5.60;92.50;;;;;;5051106;28;20121;-72
2021/11/28 08:38:00;;;;;;;20.88;5.57;;;5.60;92.40;;;;;;5051027;28;20029;-72
2021/11/28 08:40:26;;;;;;;8.80;4.68;;;5.70;92.50;;;;;;5050890;28;20521;-71
2021/11/28 08:42:52;;;;;;;17.65;5.15;;;5.70;92.40;;;;;;5050632;28;20060;-72
2021/11/28 08:45:18;;;;;;;13.98;4.57;;;5.80;92.40;;;;;;5050347;28;20045;-72
2021/11/28 08:47:45;;;;;;;14.38;5.50;;;5.90;92.30;;;;;;5051151;28;20033;-73
2021/11/28 08:50:14;;;;;;;10.65;4.53;;;5.90;92.30;;;;;;5049967;28;20022;-73
2021/11/28 08:52:43;;;;;;;13.15;4.95;;;6.00;92.10;;;;;;5049725;28;20033;-72
2021/11/28 08:55:08;;;;;;;16.75;5.70;;;6.10;92.30;;;;;;5050262;28;20036;-72
2021/11/28 08:57:35;;;;;;;12.93;5.13;;;6.10;92.10;;;;;;5050786;28;20416;-73
2021/11/28 09:00:03;;;;;;;18.15;5.35;;;6.20;92.10;;;;;;5054325;28;20013;-72
2021/11/28 09:02:29;;;;;;;13.43;5.18;;;6.30;92.10;;;;;;5054810;28;20009;-71
2021/11/28 09:04:55;;;;;;;14.70;5.43;;;6.30;92.10;;;;;;5054643;28;20481;-71
2021/11/28 09:07:20;;;;;;;18.42;5.88;;;6.30;91.90;;;;;;5054331;28;20490;-72
2021/11/28 09:09:46;;;;;;;14.63;5.38;;;6.30;91.80;;;;;;5054597;28;20116;-71
2021/11/28 09:12:12;;;;;;;12.45;5.70;;;6.30;92.00;;;;;;5054162;28;20033;-72
2021/11/28 09:14:38;;;;;;;14.73;5.60;;;6.30;91.90;;;;;;5052775;28;20032;-73
2021/11/28 09:17:04;;;;;;;21.50;5.80;;;6.40;92.00;;;;;;5054084;28;20037;-74
2021/11/28 09:19:41;;;;;;;14.30;5.07;;;6.50;92.10;;;;;;5053045;28;20105;-72
2021/11/28 09:22:09;;;;;;;14.20;6.13;;;6.10;92.00;;;;;;5054179;28;20037;-73
2021/11/28 09:24:37;;;;;;;;;;;6.20;92.50;;;;;;5054265;28;20036;-71
2021/11/28 09:27:12;;;;;;;20.08;5.72;;;6.40;92.60;;;;;;5054051;28;19917;-74
2021/11/28 09:29:40;;;;;;;18.63;5.65;;;6.40;92.30;;;;;;5053277;28;20021;-74
2021/11/28 09:32:06;;;;;;;18.27;6.50;;;6.50;92.40;;;;;;5053976;28;20056;-77
2021/11/28 09:34:33;;;;;;;16.42;6.38;;;6.70;92.40;;;;;;5053827;28;20040;-75
2021/11/28 09:36:58;;;;;;;14.40;5.93;;;6.80;92.20;;;;;;5053942;28;20518;-76
2021/11/28 09:39:25;;;;;;;15.88;5.80;;;6.60;92.30;;;;;;5053868;28;20171;-75
2021/11/28 09:41:59;;;;;;;15.70;6.10;;;6.70;92.40;;;;;;5057457;28;20020;-74
2021/11/28 09:44:28;;;;;;;16.45;6.88;;;6.80;92.30;;;;;;5073360;28;20041;-74
2021/11/28 09:46:55;;;;;;;16.25;5.82;;;6.80;92.20;;;;;;5073845;28;20105;-70
2021/11/28 09:49:25;;;;;;;17.48;6.65;;;6.80;92.30;;;;;;5072457;28;20118;-72
2021/11/28 09:51:53;;;;;;;16.38;6.47;;;6.80;92.10;;;;;;5073304;28;20178;-71
2021/11/28 09:54:20;;;;;;;19.85;7.57;;;6.60;92.20;;;;;;5073324;28;20040;-71
2021/11/28 09:56:47;;;;;;;16.43;6.77;;;6.50;92.40;;;;;;5072770;28;20028;-70
2021/11/28 09:59:13;;;;;;;15.02;6.22;;;6.60;93.00;;;;;;5072899;28;20079;-71
2021/11/28 10:01:42;;;;;;;13.65;6.20;;;6.60;92.70;;;;;;5073227;28;20031;-73
2021/11/28 10:04:08;;;;;;;25.20;7.35;;;6.50;92.60;;;;;;5073236;28;20036;-71
2021/11/28 10:06:34;;;;;;;15.70;6.32;;;6.70;94.10;;;;;;5073001;28;20040;-70
2021/11/28 10:09:04;;;;;;;15.40;7.13;;;6.50;92.90;;;;;;5073161;28;20492;-73
2021/11/28 10:11:43;;;;;;;17.85;6.80;;;6.60;93.00;;;;;;5072951;28;20028;-72
2021/11/28 10:14:11;;;;;;;17.35;8.32;;;6.80;93.00;;;;;;5072729;28;20169;-72
2021/11/28 10:16:38;;;;;;;18.30;7.70;;;6.90;93.20;;;;;;5072778;28;20048;-70
2021/11/28 10:19:06;;;;;;;20.00;8.30;;;6.80;92.50;;;;;;5072907;28;20039;-70
2021/11/28 10:21:33;;;;;;;20.80;7.88;;;6.80;92.90;;;;;;5072128;28;20277;-72
2021/11/28 10:24:04;;;;;;;20.30;8.05;;;6.80;92.60;;;;;;5072322;28;20370;-71
2021/11/28 10:26:30;;;;;;;16.38;7.60;;;6.80;92.50;;;;;;5072714;28;20025;-70
2021/11/28 10:29:13;;;;;;;19.20;8.55;;;6.60;92.60;;;;;;5071102;28;20524;-69
2021/11/28 10:31:52;;;;;;;20.70;8.57;;;6.80;92.80;;;;;;5072283;28;20052;-72
2021/11/28 10:34:22;;;;;;;20.80;8.35;;;6.50;92.60;;;;;;5072410;28;20048;-72
2021/11/28 10:36:51;;;;;;;18.63;8.55;;;6.60;93.00;;;;;;5072060;28;20039;-70
2021/11/28 10:39:20;;;;;;;19.45;7.40;;;6.70;92.90;;;;;;5072148;28;20040;-72
2021/11/28 10:41:51;;;;;;;20.88;7.82;;;6.80;92.90;;;;;;5072584;28;20024;-70
2021/11/28 10:44:18;;;;;;;19.40;8.20;;;6.90;92.90;;;;;;5071790;28;20024;-71
2021/11/28 10:46:46;;;;;;;18.10;8.52;;;6.80;92.60;;;;;;5072032;28;20274;-71
2021/11/28 10:49:14;;;;;;;26.95;9.90;;;7.00;92.60;;;;;;5071684;28;20032;-72
2021/11/28 10:51:52;;;;;;;16.50;7.95;;;6.80;92.70;;;;;;5071803;28;20032;-72
2021/11/28 10:54:22;;;;;;;19.35;9.15;;;6.60;92.80;;;;;;5071682;28;20127;-71
2021/11/28 10:56:49;;;;;;;18.25;8.68;;;6.60;92.90;;;;;;5072164;28;20730;-72
2021/11/28 10:59:19;;;;;;;15.60;8.07;;;6.70;93.00;;;;;;5071831;28;20094;-71
2021/11/28 11:01:45;;;;;;;16.63;9.27;;;6.60;93.10;;;;;;5071600;28;20039;-71
2021/11/28 11:04:21;;;;;;;21.02;9.45;;;6.40;93.20;;;;;;5071465;28;20115;-70
2021/11/28 11:07:11;;;;;;;19.85;9.13;;;6.40;93.70;;;;;;5071428;28;20113;-70
2021/11/28 11:09:45;;;;;;;17.48;9.02;;;6.40;93.70;;;;;;5068645;28;20041;-72
2021/11/28 11:12:23;;;;;;;18.50;9.27;;;6.60;93.80;;;;;;5071703;28;20104;-71
2021/11/28 11:14:50;;;;;;;17.40;9.73;;;6.60;93.70;;;;;;5072263;28;20393;-71
2021/11/28 11:17:16;;;;;;;20.10;11.02;;;6.60;94.10;;;;;;5070581;28;20040;-71
2021/11/28 11:19:47;;;;;;;26.58;11.02;;;6.50;94.00;;;;;;5071651;28;20036;-70
2021/11/28 11:22:15;;;;;;;25.00;12.52;;;6.50;94.00;;;;;;5070730;28;20465;-71
2021/11/28 11:24:49;;;;;;;25.63;11.85;;;6.40;94.10;;;;;;5071249;28;20044;-70
2021/11/28 11:27:22;;;;;;;25.40;11.55;;;6.40;94.30;;;;;;5071391;28;20445;-70
2021/11/28 11:29:51;;;;;;;27.02;13.60;;;6.20;94.70;;;;;;5071787;28;20032;-70
2021/11/28 11:32:19;;;;;;;27.80;13.95;;;6.20;94.50;;;;;;5061093;28;20045;-71
2021/11/28 11:34:52;;;;;;;22.83;11.82;;;6.30;94.60;;;;;;5051241;28;20355;-70
2021/11/28 11:37:18;;;;;;;27.10;11.93;;;6.20;94.70;;;;;;5050734;28;20356;-71
2021/11/28 11:39:47;;;;;;;30.52;13.38;;;6.20;94.80;;;;;;5050468;28;20040;-71
2021/11/28 11:42:16;;;;;;;29.30;12.18;;;6.10;95.00;;;;;;5050796;28;20045;-71
2021/11/28 11:44:46;;;;;;;31.08;13.02;;;6.20;95.40;;;;;;5051475;28;20357;-71
2021/11/28 11:47:12;;;;;;;37.28;12.93;;;6.40;95.40;;;;;;5050687;28;20034;-70
2021/11/28 11:49:39;;;;;;;32.60;13.32;;;6.60;95.00;;;;;;5050781;28;20021;-71
2021/11/28 11:52:09;;;;;;;29.33;12.48;;;6.60;94.80;;;;;;5050865;28;20039;-70
2021/11/28 11:54:50;;;;;;;30.15;14.27;;;6.40;94.70;;;;;;5050540;28;20039;-71
2021/11/28 11:57:15;;;;;;;27.27;12.18;;;6.50;94.80;;;;;;5049361;28;20048;-71
2021/11/28 12:00:06;;;;;;;32.85;13.40;;;6.50;94.80;;;;;;5050699;28;20024;-72
2021/11/28 12:02:41;;;;;;;28.10;12.85;;;6.60;94.90;;;;;;5049506;28;20036;-71
2021/11/28 12:05:26;;;;;;;30.30;14.50;;;6.50;95.00;;;;;;5050339;28;20033;-71
2021/11/28 12:08:04;;;;;;;29.90;13.50;;;6.50;95.00;;;;;;5050254;28;20064;-71
2021/11/28 12:10:43;;;;;;;36.80;15.18;;;6.60;95.00;;;;;;5050205;28;20033;-71
2021/11/28 12:13:12;;;;;;;26.95;13.77;;;6.50;95.10;;;;;;5050049;28;20159;-69
2021/11/28 12:15:49;;;;;;;25.92;12.50;;;6.60;95.30;;;;;;5050058;28;20038;-71
2021/11/28 12:18:33;;;;;;;30.25;13.95;;;6.50;95.20;;;;;;5050208;28;20112;-71
2021/11/28 12:21:00;;;;;;;28.70;13.90;;;6.50;95.10;;;;;;5050214;28;20021;-71
2021/11/28 12:23:45;;;;;;;29.40;13.63;;;6.60;95.10;;;;;;5050961;28;20024;-71
2021/11/28 12:26:29;;;;;;;28.17;12.52;;;6.70;95.10;;;;;;5050189;28;20033;-71
2021/11/28 12:29:19;;;;;;;27.30;13.20;;;6.50;95.10;;;;;;5050181;28;20025;-71
2021/11/28 12:32:14;;;;;;;29.23;14.00;;;6.50;95.20;;;;;;5048660;28;20108;-71
2021/11/28 12:34:47;;;;;;;28.40;13.27;;;6.70;95.50;;;;;;5049659;28;20088;-71
2021/11/28 12:37:23;;;;;;;26.75;14.02;;;6.50;95.10;;;;;;5049836;28;20037;-71
2021/11/28 12:39:49;;;;;;;26.55;13.85;;;6.50;95.20;;;;;;5048842;28;20559;-71
2021/11/28 12:42:23;;;;;;;29.25;12.60;;;6.60;95.10;;;;;;5049640;28;20561;-71
2021/11/28 12:44:49;;;;;;;30.95;13.70;;;6.60;95.00;;;;;;5049081;28;20120;-71
2021/11/28 12:47:14;;;;;;;26.00;13.52;;;6.70;95.00;;;;;;5048588;28;20105;-71
2021/11/28 12:49:44;;;;;;;31.73;13.50;;;6.70;95.00;;;;;;5049512;28;20099;-71
2021/11/28 12:52:26;;;;;;;25.92;12.98;;;6.70;95.00;;;;;;5049903;28;20029;-70
2021/11/28 12:55:04;;;;;;;30.73;13.57;;;6.70;95.00;;;;;;5050064;28;20037;-70
2021/11/28 12:57:35;;;;;;;27.40;13.18;;;6.60;94.90;;;;;;5049838;28;20033;-71